sensor_id;sensor_type;location;lat;lon;timestamp;P1;durP1;ratioP1;P2;durP2;ratioP2
31095;SDS011;17749;51.962;8.560;2024-03-07T06:01:26;37.63;;;17.77;;
31095;SDS011;17749;51.962;8.560;2024-03-07T06:03:53;32.88;;;15.45;;
31095;SDS011;17749;51.962;8.560;2024-03-07T06:08:51;32.20;;;15.57;;
31095;SDS011;17749;51.962;8.560;2024-03-07T06:11:19;33.58;;;15.73;;
31095;SDS011;17749;51.962;8.560;2024-03-07T06:13:48;34.67;;;16.60;;
31095;SDS011;17749;51.962;8.560;2024-03-07T06:16:15;30.90;;;14.93;;
31095;SDS011;17749;51.962;8.560;2024-03-07T06:18:42;32.25;;;15.60;;
31095;SDS011;17749;51.962;8.560;2024-03-07T06:21:10;35.10;;;17.38;;
31095;SDS011;17749;51.962;8.560;2024-03-07T06:23:38;37.00;;;17.67;;
31095;SDS011;17749;51.962;8.560;2024-03-07T06:26:05;34.00;;;15.55;;
31095;SDS011;17749;51.962;8.560;2024-03-07T06:28:39;32.65;;;16.58;;
31095;SDS011;17749;51.962;8.560;2024-03-07T06:31:06;36.97;;;16.40;;
31095;SDS011;17749;51.962;8.560;2024-03-07T06:33:34;36.00;;;16.80;;
31095;SDS011;17749;51.962;8.560;2024-03-07T06:36:01;37.00;;;17.00;;
31095;SDS011;17749;51.962;8.560;2024-03-07T06:38:29;32.63;;;15.70;;
31095;SDS011;17749;51.962;8.560;2024-03-07T06:40:56;34.83;;;17.40;;
31095;SDS011;17749;51.962;8.560;2024-03-07T06:43:23;34.15;;;16.70;;
31095;SDS011;17749;51.962;8.560;2024-03-07T06:45:50;35.10;;;16.83;;
31095;SDS011;17749;51.962;8.560;2024-03-07T06:48:18;31.77;;;16.58;;
31095;SDS011;17749;51.962;8.560;2024-03-07T06:50:46;34.95;;;16.73;;
31095;SDS011;17749;51.962;8.560;2024-03-07T06:53:13;34.30;;;16.25;;
31095;SDS011;17749;51.962;8.560;2024-03-07T06:55:40;35.78;;;15.95;;
31095;SDS011;17749;51.962;8.560;2024-03-07T06:58:07;34.95;;;15.60;;
31095;SDS011;17749;51.962;8.560;2024-03-07T07:00:34;35.53;;;16.38;;
31095;SDS011;17749;51.962;8.560;2024-03-07T07:03:04;37.58;;;17.27;;
31095;SDS011;17749;51.962;8.560;2024-03-07T07:05:31;35.20;;;17.15;;
31095;SDS011;17749;51.962;8.560;2024-03-07T07:08:04;33.38;;;16.88;;
31095;SDS011;17749;51.962;8.560;2024-03-07T07:10:35;30.50;;;16.02;;
31095;SDS011;17749;51.962;8.560;2024-03-07T07:13:02;35.88;;;16.77;;
31095;SDS011;17749;51.962;8.560;2024-03-07T07:15:31;38.40;;;17.90;;
31095;SDS011;17749;51.962;8.560;2024-03-07T07:17:59;33.90;;;16.25;;
31095;SDS011;17749;51.962;8.560;2024-03-07T07:20:29;37.92;;;17.17;;
31095;SDS011;17749;51.962;8.560;2024-03-07T07:22:56;35.10;;;16.23;;
31095;SDS011;17749;51.962;8.560;2024-03-07T07:25:24;35.70;;;18.48;;
31095;SDS011;17749;51.962;8.560;2024-03-07T07:27:53;39.25;;;17.73;;
31095;SDS011;17749;51.962;8.560;2024-03-07T07:30:21;35.83;;;17.45;;
31095;SDS011;17749;51.962;8.560;2024-03-07T07:32:50;35.55;;;16.85;;
31095;SDS011;17749;51.962;8.560;2024-03-07T07:35:18;33.33;;;16.13;;
31095;SDS011;17749;51.962;8.560;2024-03-07T07:37:46;37.90;;;16.95;;
31095;SDS011;17749;51.962;8.560;2024-03-07T07:40:15;36.65;;;17.80;;
31095;SDS011;17749;51.962;8.560;2024-03-07T07:42:46;34.63;;;16.73;;
31095;SDS011;17749;51.962;8.560;2024-03-07T07:45:14;33.08;;;17.42;;
31095;SDS011;17749;51.962;8.560;2024-03-07T07:47:43;35.03;;;17.13;;
31095;SDS011;17749;51.962;8.560;2024-03-07T07:50:12;31.77;;;17.60;;
31095;SDS011;17749;51.962;8.560;2024-03-07T07:52:41;38.42;;;19.00;;
31095;SDS011;17749;51.962;8.560;2024-03-07T07:55:17;33.35;;;17.40;;
31095;SDS011;17749;51.962;8.560;2024-03-07T07:57:44;41.08;;;17.30;;
31095;SDS011;17749;51.962;8.560;2024-03-07T08:00:13;36.15;;;17.55;;
31095;SDS011;17749;51.962;8.560;2024-03-07T08:05:15;37.13;;;18.92;;
31095;SDS011;17749;51.962;8.560;2024-03-07T08:07:47;38.35;;;16.80;;
31095;SDS011;17749;51.962;8.560;2024-03-07T08:10:15;39.95;;;18.25;;
31095;SDS011;17749;51.962;8.560;2024-03-07T08:12:42;38.60;;;18.25;;
31095;SDS011;17749;51.962;8.560;2024-03-07T08:15:13;34.15;;;17.98;;
31095;SDS011;17749;51.962;8.560;2024-03-07T08:17:41;36.88;;;18.42;;
31095;SDS011;17749;51.962;8.560;2024-03-07T08:20:13;37.13;;;19.60;;
31095;SDS011;17749;51.962;8.560;2024-03-07T08:22:51;39.90;;;19.63;;
31095;SDS011;17749;51.962;8.560;2024-03-07T08:25:20;39.83;;;17.30;;
31095;SDS011;17749;51.962;8.560;2024-03-07T08:27:50;38.08;;;20.45;;
31095;SDS011;17749;51.962;8.560;2024-03-07T08:30:28;40.08;;;19.38;;
31095;SDS011;17749;51.962;8.560;2024-03-07T08:32:56;43.08;;;18.75;;
31095;SDS011;17749;51.962;8.560;2024-03-07T08:35:24;48.20;;;20.33;;
31095;SDS011;17749;51.962;8.560;2024-03-07T08:37:53;39.00;;;19.88;;
31095;SDS011;17749;51.962;8.560;2024-03-07T08:40:22;40.38;;;19.23;;
31095;SDS011;17749;51.962;8.560;2024-03-07T08:42:55;38.70;;;19.20;;
31095;SDS011;17749;51.962;8.560;2024-03-07T08:45:25;43.47;;;20.15;;
31095;SDS011;17749;51.962;8.560;2024-03-07T08:47:54;38.15;;;18.42;;
31095;SDS011;17749;51.962;8.560;2024-03-07T08:50:23;41.97;;;18.40;;
31095;SDS011;17749;51.962;8.560;2024-03-07T08:52:53;44.13;;;19.88;;
31095;SDS011;17749;51.962;8.560;2024-03-07T08:55:20;41.47;;;19.60;;
31095;SDS011;17749;51.962;8.560;2024-03-07T08:57:50;40.47;;;19.38;;
31095;SDS011;17749;51.962;8.560;2024-03-07T09:00:18;38.38;;;19.00;;
31095;SDS011;17749;51.962;8.560;2024-03-07T09:02:54;44.33;;;19.92;;
31095;SDS011;17749;51.962;8.560;2024-03-07T09:05:28;44.67;;;20.90;;
31095;SDS011;17749;51.962;8.560;2024-03-07T09:07:56;43.90;;;19.95;;
31095;SDS011;17749;51.962;8.560;2024-03-07T09:10:24;39.28;;;19.15;;
31095;SDS011;17749;51.962;8.560;2024-03-07T09:12:52;44.53;;;20.73;;
31095;SDS011;17749;51.962;8.560;2024-03-07T09:15:21;44.53;;;19.40;;
31095;SDS011;17749;51.962;8.560;2024-03-07T09:18:04;42.35;;;18.58;;
31095;SDS011;17749;51.962;8.560;2024-03-07T09:20:31;40.95;;;18.60;;
31095;SDS011;17749;51.962;8.560;2024-03-07T09:22:59;39.55;;;20.38;;
31095;SDS011;17749;51.962;8.560;2024-03-07T09:25:27;46.17;;;21.75;;
31095;SDS011;17749;51.962;8.560;2024-03-07T09:27:58;41.33;;;19.98;;
31095;SDS011;17749;51.962;8.560;2024-03-07T09:30:27;48.58;;;20.13;;
31095;SDS011;17749;51.962;8.560;2024-03-07T09:33:00;43.58;;;19.63;;
31095;SDS011;17749;51.962;8.560;2024-03-07T09:35:29;45.30;;;19.83;;
31095;SDS011;17749;51.962;8.560;2024-03-07T09:37:56;41.83;;;18.83;;
31095;SDS011;17749;51.962;8.560;2024-03-07T09:40:24;46.97;;;19.13;;
31095;SDS011;17749;51.962;8.560;2024-03-07T09:43:00;37.90;;;20.55;;
31095;SDS011;17749;51.962;8.560;2024-03-07T09:45:28;44.55;;;19.45;;
31095;SDS011;17749;51.962;8.560;2024-03-07T09:48:00;42.85;;;18.05;;
31095;SDS011;17749;51.962;8.560;2024-03-07T09:50:32;40.78;;;19.50;;
31095;SDS011;17749;51.962;8.560;2024-03-07T09:53:00;45.45;;;20.45;;
31095;SDS011;17749;51.962;8.560;2024-03-07T09:55:29;41.53;;;18.38;;
31095;SDS011;17749;51.962;8.560;2024-03-07T09:57:58;43.85;;;18.40;;
31095;SDS011;17749;51.962;8.560;2024-03-07T10:00:27;40.13;;;18.80;;
31095;SDS011;17749;51.962;8.560;2024-03-07T10:05:32;42.78;;;18.00;;
31095;SDS011;17749;51.962;8.560;2024-03-07T10:08:00;41.92;;;19.33;;
31095;SDS011;17749;51.962;8.560;2024-03-07T10:10:40;47.25;;;18.90;;
31095;SDS011;17749;51.962;8.560;2024-03-07T10:13:17;46.47;;;21.15;;
31095;SDS011;17749;51.962;8.560;2024-03-07T10:15:46;45.10;;;20.23;;
31095;SDS011;17749;51.962;8.560;2024-03-07T10:18:14;45.85;;;19.98;;
31095;SDS011;17749;51.962;8.560;2024-03-07T10:20:42;45.63;;;20.27;;
31095;SDS011;17749;51.962;8.560;2024-03-07T10:23:36;42.78;;;19.00;;
31095;SDS011;17749;51.962;8.560;2024-03-07T10:26:04;50.47;;;20.35;;
31095;SDS011;17749;51.962;8.560;2024-03-07T10:28:31;48.88;;;21.25;;
31095;SDS011;17749;51.962;8.560;2024-03-07T10:31:00;49.28;;;21.70;;
31095;SDS011;17749;51.962;8.560;2024-03-07T10:33:27;44.25;;;19.73;;
31095;SDS011;17749;51.962;8.560;2024-03-07T10:35:55;49.60;;;21.52;;
31095;SDS011;17749;51.962;8.560;2024-03-07T10:38:22;51.15;;;21.60;;
31095;SDS011;17749;51.962;8.560;2024-03-07T10:40:52;42.67;;;19.38;;
31095;SDS011;17749;51.962;8.560;2024-03-07T10:43:21;55.38;;;20.20;;
31095;SDS011;17749;51.962;8.560;2024-03-07T10:45:49;51.97;;;19.40;;
31095;SDS011;17749;51.962;8.560;2024-03-07T10:48:19;51.22;;;21.63;;
31095;SDS011;17749;51.962;8.560;2024-03-07T10:50:52;49.40;;;19.80;;
31095;SDS011;17749;51.962;8.560;2024-03-07T10:53:37;53.10;;;20.48;;
31095;SDS011;17749;51.962;8.560;2024-03-07T10:59:16;42.80;;;19.83;;
31095;SDS011;17749;51.962;8.560;2024-03-07T11:01:59;52.05;;;20.42;;
31095;SDS011;17749;51.962;8.560;2024-03-07T11:04:39;41.05;;;19.13;;
31095;SDS011;17749;51.962;8.560;2024-03-07T11:07:06;48.05;;;19.63;;
31095;SDS011;17749;51.962;8.560;2024-03-07T11:09:37;48.83;;;20.02;;
31095;SDS011;17749;51.962;8.560;2024-03-07T11:12:07;49.30;;;20.35;;
31095;SDS011;17749;51.962;8.560;2024-03-07T11:14:38;39.70;;;17.48;;
31095;SDS011;17749;51.962;8.560;2024-03-07T11:17:07;38.53;;;16.58;;
31095;SDS011;17749;51.962;8.560;2024-03-07T11:19:36;38.30;;;16.27;;
31095;SDS011;17749;51.962;8.560;2024-03-07T11:22:04;36.40;;;16.95;;
31095;SDS011;17749;51.962;8.560;2024-03-07T11:24:43;43.00;;;18.40;;
31095;SDS011;17749;51.962;8.560;2024-03-07T11:27:12;44.70;;;18.58;;
31095;SDS011;17749;51.962;8.560;2024-03-07T11:29:48;51.10;;;20.23;;
31095;SDS011;17749;51.962;8.560;2024-03-07T11:32:21;40.75;;;17.77;;
31095;SDS011;17749;51.962;8.560;2024-03-07T11:34:50;38.50;;;17.98;;
31095;SDS011;17749;51.962;8.560;2024-03-07T11:37:36;37.58;;;16.13;;
31095;SDS011;17749;51.962;8.560;2024-03-07T11:40:11;36.72;;;14.38;;
31095;SDS011;17749;51.962;8.560;2024-03-07T11:42:48;36.67;;;15.93;;
31095;SDS011;17749;51.962;8.560;2024-03-07T11:45:17;40.50;;;17.10;;
31095;SDS011;17749;51.962;8.560;2024-03-07T11:47:57;42.45;;;18.55;;
31095;SDS011;17749;51.962;8.560;2024-03-07T11:50:34;42.45;;;16.75;;
31095;SDS011;17749;51.962;8.560;2024-03-07T11:53:03;39.15;;;16.27;;
31095;SDS011;17749;51.962;8.560;2024-03-07T11:55:33;40.95;;;16.25;;
31095;SDS011;17749;51.962;8.560;2024-03-07T11:58:17;36.65;;;15.80;;
31095;SDS011;17749;51.962;8.560;2024-03-07T12:00:48;38.28;;;16.33;;
31095;SDS011;17749;51.962;8.560;2024-03-07T12:03:19;39.78;;;17.35;;
31095;SDS011;17749;51.962;8.560;2024-03-07T12:05:48;34.38;;;15.50;;
31095;SDS011;17749;51.962;8.560;2024-03-07T12:10:49;37.05;;;14.63;;
31095;SDS011;17749;51.962;8.560;2024-03-07T12:13:20;38.90;;;16.42;;
31095;SDS011;17749;51.962;8.560;2024-03-07T12:15:47;36.20;;;16.73;;
31095;SDS011;17749;51.962;8.560;2024-03-07T12:18:15;43.35;;;17.55;;
31095;SDS011;17749;51.962;8.560;2024-03-07T12:20:44;40.75;;;16.10;;
31095;SDS011;17749;51.962;8.560;2024-03-07T12:23:22;38.58;;;16.70;;
31095;SDS011;17749;51.962;8.560;2024-03-07T12:26:02;38.40;;;14.68;;
31095;SDS011;17749;51.962;8.560;2024-03-07T12:28:29;37.30;;;16.67;;
31095;SDS011;17749;51.962;8.560;2024-03-07T12:31:05;44.85;;;16.20;;
31095;SDS011;17749;51.962;8.560;2024-03-07T12:33:42;38.22;;;16.98;;
31095;SDS011;17749;51.962;8.560;2024-03-07T12:36:18;38.40;;;16.60;;
31095;SDS011;17749;51.962;8.560;2024-03-07T12:38:52;40.10;;;17.70;;
31095;SDS011;17749;51.962;8.560;2024-03-07T12:41:20;44.72;;;18.15;;
31095;SDS011;17749;51.962;8.560;2024-03-07T12:43:49;38.17;;;14.57;;
31095;SDS011;17749;51.962;8.560;2024-03-07T12:46:16;40.35;;;16.40;;
31095;SDS011;17749;51.962;8.560;2024-03-07T12:48:44;36.58;;;16.05;;
31095;SDS011;17749;51.962;8.560;2024-03-07T12:51:13;42.50;;;17.15;;
31095;SDS011;17749;51.962;8.560;2024-03-07T12:53:46;41.53;;;18.00;;
31095;SDS011;17749;51.962;8.560;2024-03-07T12:56:14;44.10;;;16.50;;
31095;SDS011;17749;51.962;8.560;2024-03-07T12:58:46;33.70;;;15.25;;
31095;SDS011;17749;51.962;8.560;2024-03-07T13:01:14;35.72;;;16.20;;
31095;SDS011;17749;51.962;8.560;2024-03-07T13:03:43;30.92;;;15.35;;
31095;SDS011;17749;51.962;8.560;2024-03-07T13:06:11;36.38;;;15.63;;
31095;SDS011;17749;51.962;8.560;2024-03-07T13:08:39;37.17;;;15.40;;
31095;SDS011;17749;51.962;8.560;2024-03-07T13:11:08;40.35;;;15.63;;
31095;SDS011;17749;51.962;8.560;2024-03-07T13:13:37;34.97;;;15.02;;
31095;SDS011;17749;51.962;8.560;2024-03-07T13:16:04;44.35;;;16.65;;
31095;SDS011;17749;51.962;8.560;2024-03-07T13:18:31;33.78;;;15.77;;
31095;SDS011;17749;51.962;8.560;2024-03-07T13:21:02;36.38;;;16.40;;
31095;SDS011;17749;51.962;8.560;2024-03-07T13:23:31;46.00;;;18.65;;
31095;SDS011;17749;51.962;8.560;2024-03-07T13:26:01;37.40;;;15.35;;
31095;SDS011;17749;51.962;8.560;2024-03-07T13:28:28;39.22;;;16.77;;
31095;SDS011;17749;51.962;8.560;2024-03-07T13:30:56;33.95;;;15.13;;
31095;SDS011;17749;51.962;8.560;2024-03-07T13:33:23;35.00;;;16.15;;
31095;SDS011;17749;51.962;8.560;2024-03-07T13:35:52;42.70;;;17.13;;
31095;SDS011;17749;51.962;8.560;2024-03-07T13:38:20;36.20;;;15.18;;
31095;SDS011;17749;51.962;8.560;2024-03-07T13:40:47;41.05;;;16.35;;
31095;SDS011;17749;51.962;8.560;2024-03-07T13:43:16;37.92;;;16.17;;
31095;SDS011;17749;51.962;8.560;2024-03-07T13:45:43;33.58;;;15.10;;
31095;SDS011;17749;51.962;8.560;2024-03-07T13:48:11;40.75;;;15.57;;
31095;SDS011;17749;51.962;8.560;2024-03-07T13:50:44;45.42;;;14.60;;
31095;SDS011;17749;51.962;8.560;2024-03-07T13:53:24;37.70;;;16.95;;
31095;SDS011;17749;51.962;8.560;2024-03-07T13:55:56;41.45;;;17.90;;
31095;SDS011;17749;51.962;8.560;2024-03-07T14:01:35;44.30;;;17.60;;
31095;SDS011;17749;51.962;8.560;2024-03-07T14:11:03;42.45;;;17.08;;
31095;SDS011;17749;51.962;8.560;2024-03-07T14:22:24;49.75;;;17.25;;
31095;SDS011;17749;51.962;8.560;2024-03-07T14:30:54;46.67;;;18.73;;
31095;SDS011;17749;51.962;8.560;2024-03-07T14:33:32;38.67;;;18.63;;
31095;SDS011;17749;51.962;8.560;2024-03-07T14:36:14;47.72;;;18.98;;
31095;SDS011;17749;51.962;8.560;2024-03-07T14:38:49;49.40;;;17.88;;
31095;SDS011;17749;51.962;8.560;2024-03-07T14:41:23;45.80;;;17.60;;
31095;SDS011;17749;51.962;8.560;2024-03-07T14:44:07;43.58;;;17.67;;
31095;SDS011;17749;51.962;8.560;2024-03-07T14:46:34;44.33;;;16.95;;
31095;SDS011;17749;51.962;8.560;2024-03-07T14:49:01;47.90;;;20.88;;
31095;SDS011;17749;51.962;8.560;2024-03-07T14:51:31;43.28;;;20.20;;
31095;SDS011;17749;51.962;8.560;2024-03-07T14:54:10;46.78;;;17.25;;
31095;SDS011;17749;51.962;8.560;2024-03-07T14:56:37;43.47;;;18.90;;
31095;SDS011;17749;51.962;8.560;2024-03-07T14:59:04;46.67;;;18.02;;
31095;SDS011;17749;51.962;8.560;2024-03-07T15:01:32;41.25;;;19.20;;
31095;SDS011;17749;51.962;8.560;2024-03-07T15:04:03;45.65;;;20.38;;
31095;SDS011;17749;51.962;8.560;2024-03-07T15:06:33;47.03;;;18.42;;
31095;SDS011;17749;51.962;8.560;2024-03-07T15:09:01;44.67;;;18.27;;
31095;SDS011;17749;51.962;8.560;2024-03-07T15:11:31;37.83;;;17.65;;
31095;SDS011;17749;51.962;8.560;2024-03-07T15:14:01;39.60;;;18.67;;
31095;SDS011;17749;51.962;8.560;2024-03-07T15:16:31;40.22;;;17.77;;
31095;SDS011;17749;51.962;8.560;2024-03-07T15:19:08;36.90;;;16.58;;
31095;SDS011;17749;51.962;8.560;2024-03-07T15:21:35;36.65;;;16.40;;
31095;SDS011;17749;51.962;8.560;2024-03-07T15:24:04;39.15;;;17.02;;
31095;SDS011;17749;51.962;8.560;2024-03-07T15:26:32;36.80;;;14.85;;
31095;SDS011;17749;51.962;8.560;2024-03-07T15:28:59;37.25;;;15.85;;
31095;SDS011;17749;51.962;8.560;2024-03-07T15:31:29;35.55;;;14.60;;
31095;SDS011;17749;51.962;8.560;2024-03-07T15:33:56;35.60;;;16.60;;
31095;SDS011;17749;51.962;8.560;2024-03-07T15:36:23;39.40;;;16.40;;
31095;SDS011;17749;51.962;8.560;2024-03-07T15:38:52;34.22;;;16.98;;
31095;SDS011;17749;51.962;8.560;2024-03-07T15:41:20;30.80;;;14.55;;
31095;SDS011;17749;51.962;8.560;2024-03-07T15:43:48;38.58;;;17.35;;
31095;SDS011;17749;51.962;8.560;2024-03-07T15:46:15;31.67;;;15.68;;
31095;SDS011;17749;51.962;8.560;2024-03-07T15:48:44;33.17;;;14.60;;
31095;SDS011;17749;51.962;8.560;2024-03-07T15:51:12;32.20;;;14.60;;
31095;SDS011;17749;51.962;8.560;2024-03-07T15:53:39;34.97;;;14.68;;
31095;SDS011;17749;51.962;8.560;2024-03-07T15:56:08;37.05;;;14.82;;
31095;SDS011;17749;51.962;8.560;2024-03-07T15:58:35;32.53;;;13.38;;
31095;SDS011;17749;51.962;8.560;2024-03-07T16:01:02;29.40;;;16.23;;
31095;SDS011;17749;51.962;8.560;2024-03-07T16:03:29;36.05;;;15.48;;
31095;SDS011;17749;51.962;8.560;2024-03-07T16:05:56;34.65;;;14.80;;
31095;SDS011;17749;51.962;8.560;2024-03-07T16:08:24;30.25;;;15.52;;
31095;SDS011;17749;51.962;8.560;2024-03-07T16:10:51;37.75;;;16.33;;
31095;SDS011;17749;51.962;8.560;2024-03-07T16:13:19;37.50;;;15.60;;
31095;SDS011;17749;51.962;8.560;2024-03-07T16:15:46;29.05;;;14.75;;
31095;SDS011;17749;51.962;8.560;2024-03-07T16:18:14;37.90;;;15.63;;
31095;SDS011;17749;51.962;8.560;2024-03-07T16:20:42;34.85;;;15.77;;
31095;SDS011;17749;51.962;8.560;2024-03-07T16:23:14;28.02;;;14.20;;
31095;SDS011;17749;51.962;8.560;2024-03-07T16:25:43;34.78;;;14.70;;
31095;SDS011;17749;51.962;8.560;2024-03-07T16:28:10;32.83;;;14.48;;
31095;SDS011;17749;51.962;8.560;2024-03-07T16:30:40;34.03;;;15.65;;
31095;SDS011;17749;51.962;8.560;2024-03-07T16:33:15;27.77;;;13.75;;
31095;SDS011;17749;51.962;8.560;2024-03-07T16:35:44;26.90;;;12.20;;
31095;SDS011;17749;51.962;8.560;2024-03-07T16:38:12;40.20;;;12.75;;
31095;SDS011;17749;51.962;8.560;2024-03-07T16:40:39;29.73;;;12.63;;
31095;SDS011;17749;51.962;8.560;2024-03-07T16:43:09;26.25;;;12.73;;
31095;SDS011;17749;51.962;8.560;2024-03-07T16:45:39;26.02;;;13.05;;
31095;SDS011;17749;51.962;8.560;2024-03-07T16:48:06;27.52;;;11.60;;
31095;SDS011;17749;51.962;8.560;2024-03-07T16:50:37;25.45;;;11.88;;
31095;SDS011;17749;51.962;8.560;2024-03-07T16:53:09;26.17;;;11.80;;
31095;SDS011;17749;51.962;8.560;2024-03-07T16:55:37;22.85;;;12.52;;
31095;SDS011;17749;51.962;8.560;2024-03-07T16:58:05;24.15;;;11.70;;
31095;SDS011;17749;51.962;8.560;2024-03-07T17:00:39;25.45;;;12.60;;
31095;SDS011;17749;51.962;8.560;2024-03-07T17:03:07;25.17;;;11.77;;
31095;SDS011;17749;51.962;8.560;2024-03-07T17:08:06;25.60;;;11.98;;
31095;SDS011;17749;51.962;8.560;2024-03-07T17:10:34;24.38;;;11.57;;
31095;SDS011;17749;51.962;8.560;2024-03-07T17:13:06;26.20;;;11.50;;
31095;SDS011;17749;51.962;8.560;2024-03-07T17:15:39;23.77;;;11.65;;
31095;SDS011;17749;51.962;8.560;2024-03-07T17:18:10;25.42;;;13.00;;
31095;SDS011;17749;51.962;8.560;2024-03-07T17:20:39;33.67;;;15.55;;
31095;SDS011;17749;51.962;8.560;2024-03-07T17:23:12;40.92;;;16.33;;
31095;SDS011;17749;51.962;8.560;2024-03-07T17:25:39;35.60;;;15.43;;
31095;SDS011;17749;51.962;8.560;2024-03-07T17:28:07;43.40;;;18.23;;
31095;SDS011;17749;51.962;8.560;2024-03-07T17:30:34;25.20;;;12.13;;
31095;SDS011;17749;51.962;8.560;2024-03-07T17:33:05;28.02;;;12.98;;
31095;SDS011;17749;51.962;8.560;2024-03-07T17:35:34;25.47;;;12.10;;
31095;SDS011;17749;51.962;8.560;2024-03-07T17:38:08;29.50;;;12.52;;
31095;SDS011;17749;51.962;8.560;2024-03-07T17:40:40;29.77;;;13.70;;
31095;SDS011;17749;51.962;8.560;2024-03-07T17:43:07;28.33;;;13.20;;
31095;SDS011;17749;51.962;8.560;2024-03-07T17:45:36;24.90;;;11.98;;
31095;SDS011;17749;51.962;8.560;2024-03-07T17:48:04;22.33;;;12.27;;
31095;SDS011;17749;51.962;8.560;2024-03-07T17:50:34;23.30;;;12.45;;
31095;SDS011;17749;51.962;8.560;2024-03-07T17:53:02;24.63;;;12.20;;
31095;SDS011;17749;51.962;8.560;2024-03-07T17:55:36;24.55;;;12.02;;
31095;SDS011;17749;51.962;8.560;2024-03-07T17:58:09;27.38;;;12.98;;
31095;SDS011;17749;51.962;8.560;2024-03-07T18:03:10;27.20;;;12.70;;
31095;SDS011;17749;51.962;8.560;2024-03-07T18:05:38;27.30;;;13.18;;
31095;SDS011;17749;51.962;8.560;2024-03-07T18:08:17;26.40;;;12.40;;
31095;SDS011;17749;51.962;8.560;2024-03-07T18:10:47;24.38;;;12.48;;
31095;SDS011;17749;51.962;8.560;2024-03-07T18:13:14;29.85;;;13.48;;
31095;SDS011;17749;51.962;8.560;2024-03-07T18:15:41;24.35;;;13.10;;
31095;SDS011;17749;51.962;8.560;2024-03-07T18:18:09;25.50;;;12.52;;
31095;SDS011;17749;51.962;8.560;2024-03-07T18:20:40;23.88;;;12.20;;
31095;SDS011;17749;51.962;8.560;2024-03-07T18:23:12;22.27;;;12.30;;
31095;SDS011;17749;51.962;8.560;2024-03-07T18:25:40;28.38;;;12.38;;
31095;SDS011;17749;51.962;8.560;2024-03-07T18:28:08;24.98;;;13.35;;
31095;SDS011;17749;51.962;8.560;2024-03-07T18:30:35;28.77;;;13.38;;
31095;SDS011;17749;51.962;8.560;2024-03-07T18:33:03;28.15;;;13.82;;
31095;SDS011;17749;51.962;8.560;2024-03-07T18:35:35;23.98;;;11.80;;
31095;SDS011;17749;51.962;8.560;2024-03-07T18:38:06;23.25;;;11.48;;
31095;SDS011;17749;51.962;8.560;2024-03-07T18:40:35;27.40;;;14.05;;
31095;SDS011;17749;51.962;8.560;2024-03-07T18:43:02;24.67;;;11.50;;
31095;SDS011;17749;51.962;8.560;2024-03-07T18:45:34;26.75;;;11.57;;
31095;SDS011;17749;51.962;8.560;2024-03-07T18:48:03;21.65;;;12.20;;
31095;SDS011;17749;51.962;8.560;2024-03-07T18:50:35;26.95;;;12.68;;
31095;SDS011;17749;51.962;8.560;2024-03-07T18:53:13;22.52;;;12.18;;
31095;SDS011;17749;51.962;8.560;2024-03-07T18:55:42;25.57;;;12.57;;
31095;SDS011;17749;51.962;8.560;2024-03-07T18:58:15;23.02;;;11.93;;
31095;SDS011;17749;51.962;8.560;2024-03-07T19:00:43;23.83;;;13.07;;
31095;SDS011;17749;51.962;8.560;2024-03-07T19:05:42;24.48;;;12.10;;
31095;SDS011;17749;51.962;8.560;2024-03-07T19:08:13;25.33;;;11.63;;
31095;SDS011;17749;51.962;8.560;2024-03-07T19:10:53;26.05;;;12.73;;
31095;SDS011;17749;51.962;8.560;2024-03-07T19:13:27;23.90;;;11.75;;
31095;SDS011;17749;51.962;8.560;2024-03-07T19:16:02;25.85;;;11.95;;
31095;SDS011;17749;51.962;8.560;2024-03-07T19:18:30;24.55;;;12.57;;
31095;SDS011;17749;51.962;8.560;2024-03-07T19:20:57;24.95;;;13.10;;
31095;SDS011;17749;51.962;8.560;2024-03-07T19:23:24;24.50;;;11.73;;
31095;SDS011;17749;51.962;8.560;2024-03-07T19:25:52;28.60;;;12.95;;
31095;SDS011;17749;51.962;8.560;2024-03-07T19:28:20;26.20;;;11.95;;
31095;SDS011;17749;51.962;8.560;2024-03-07T19:30:48;23.92;;;14.52;;
31095;SDS011;17749;51.962;8.560;2024-03-07T19:33:18;27.25;;;12.73;;
31095;SDS011;17749;51.962;8.560;2024-03-07T19:35:52;22.63;;;12.95;;
31095;SDS011;17749;51.962;8.560;2024-03-07T19:38:24;26.77;;;12.82;;
31095;SDS011;17749;51.962;8.560;2024-03-07T19:40:52;24.90;;;14.20;;
31095;SDS011;17749;51.962;8.560;2024-03-07T19:43:19;27.48;;;13.27;;
31095;SDS011;17749;51.962;8.560;2024-03-07T19:45:49;25.02;;;11.48;;
31095;SDS011;17749;51.962;8.560;2024-03-07T19:48:16;25.70;;;11.60;;
31095;SDS011;17749;51.962;8.560;2024-03-07T19:50:44;26.58;;;13.00;;
31095;SDS011;17749;51.962;8.560;2024-03-07T19:53:12;24.77;;;11.95;;
31095;SDS011;17749;51.962;8.560;2024-03-07T19:55:42;24.27;;;12.60;;
31095;SDS011;17749;51.962;8.560;2024-03-07T19:58:11;29.42;;;14.30;;
31095;SDS011;17749;51.962;8.560;2024-03-07T20:00:44;26.98;;;13.68;;
31095;SDS011;17749;51.962;8.560;2024-03-07T20:03:13;23.95;;;11.90;;
31095;SDS011;17749;51.962;8.560;2024-03-07T20:05:41;27.55;;;13.13;;
31095;SDS011;17749;51.962;8.560;2024-03-07T20:08:08;18.27;;;10.00;;
31095;SDS011;17749;51.962;8.560;2024-03-07T20:10:41;24.10;;;12.18;;
31095;SDS011;17749;51.962;8.560;2024-03-07T20:13:15;22.67;;;12.65;;
31095;SDS011;17749;51.962;8.560;2024-03-07T20:15:43;23.58;;;12.40;;
31095;SDS011;17749;51.962;8.560;2024-03-07T20:18:12;26.40;;;13.00;;
31095;SDS011;17749;51.962;8.560;2024-03-07T20:20:40;23.57;;;11.93;;
31095;SDS011;17749;51.962;8.560;2024-03-07T20:23:12;27.58;;;12.15;;
31095;SDS011;17749;51.962;8.560;2024-03-07T20:25:43;26.85;;;12.77;;
31095;SDS011;17749;51.962;8.560;2024-03-07T20:28:12;24.50;;;12.60;;
31095;SDS011;17749;51.962;8.560;2024-03-07T20:30:41;27.77;;;13.17;;
31095;SDS011;17749;51.962;8.560;2024-03-07T20:33:12;21.42;;;12.48;;
31095;SDS011;17749;51.962;8.560;2024-03-07T20:35:40;22.60;;;11.85;;
31095;SDS011;17749;51.962;8.560;2024-03-07T20:38:07;23.88;;;13.63;;
31095;SDS011;17749;51.962;8.560;2024-03-07T20:40:38;24.48;;;12.15;;
31095;SDS011;17749;51.962;8.560;2024-03-07T20:43:05;25.05;;;12.32;;
31095;SDS011;17749;51.962;8.560;2024-03-07T20:45:33;22.42;;;13.77;;
31095;SDS011;17749;51.962;8.560;2024-03-07T20:48:04;26.60;;;14.30;;
31095;SDS011;17749;51.962;8.560;2024-03-07T20:50:38;26.60;;;13.35;;
31095;SDS011;17749;51.962;8.560;2024-03-07T20:53:06;23.83;;;12.82;;
31095;SDS011;17749;51.962;8.560;2024-03-07T20:58:03;23.05;;;12.75;;
31095;SDS011;17749;51.962;8.560;2024-03-07T21:00:30;25.75;;;12.18;;
31095;SDS011;17749;51.962;8.560;2024-03-07T21:03:01;26.25;;;13.65;;
31095;SDS011;17749;51.962;8.560;2024-03-07T21:05:30;27.40;;;14.40;;
31095;SDS011;17749;51.962;8.560;2024-03-07T21:08:00;32.50;;;15.20;;
31095;SDS011;17749;51.962;8.560;2024-03-07T21:10:28;37.72;;;16.67;;
31095;SDS011;17749;51.962;8.560;2024-03-07T21:12:56;31.63;;;16.83;;
31095;SDS011;17749;51.962;8.560;2024-03-07T21:15:23;25.27;;;13.07;;
31095;SDS011;17749;51.962;8.560;2024-03-07T21:17:53;26.05;;;13.13;;
31095;SDS011;17749;51.962;8.560;2024-03-07T21:20:21;24.50;;;13.05;;
31095;SDS011;17749;51.962;8.560;2024-03-07T21:22:49;30.48;;;14.07;;
31095;SDS011;17749;51.962;8.560;2024-03-07T21:25:19;24.10;;;13.60;;
